sensor_id;sensor_type;location;lat;lon;timestamp;P1;durP1;ratioP1;P2;durP2;ratioP2
36555;SDS011;40859;50.560;7.268;2023-04-03T00:01:15;1.83;;;1.00;;
36555;SDS011;40859;50.560;7.268;2023-04-03T00:03:41;2.95;;;0.95;;
36555;SDS011;40859;50.560;7.268;2023-04-03T00:06:08;4.72;;;0.70;;
36555;SDS011;40859;50.560;7.268;2023-04-03T00:08:35;0.88;;;0.62;;
36555;SDS011;40859;50.560;7.268;2023-04-03T00:11:02;1.40;;;0.80;;
36555;SDS011;40859;50.560;7.268;2023-04-03T00:13:28;2.62;;;0.85;;
36555;SDS011;40859;50.560;7.268;2023-04-03T00:15:54;2.20;;;0.55;;
36555;SDS011;40859;50.560;7.268;2023-04-03T00:18:20;0.55;;;0.40;;
36555;SDS011;40859;50.560;7.268;2023-04-03T00:20:46;0.70;;;0.40;;
36555;SDS011;40859;50.560;7.268;2023-04-03T00:23:12;0.85;;;0.57;;
36555;SDS011;40859;50.560;7.268;2023-04-03T00:25:39;2.30;;;0.85;;
36555;SDS011;40859;50.560;7.268;2023-04-03T00:28:04;1.85;;;0.90;;
36555;SDS011;40859;50.560;7.268;2023-04-03T00:30:30;2.17;;;0.80;;
36555;SDS011;40859;50.560;7.268;2023-04-03T00:32:56;1.87;;;1.12;;
36555;SDS011;40859;50.560;7.268;2023-04-03T00:35:23;2.58;;;0.90;;
36555;SDS011;40859;50.560;7.268;2023-04-03T00:37:51;1.08;;;0.70;;
36555;SDS011;40859;50.560;7.268;2023-04-03T00:40:18;1.80;;;0.77;;
36555;SDS011;40859;50.560;7.268;2023-04-03T00:42:46;4.25;;;0.65;;
36555;SDS011;40859;50.560;7.268;2023-04-03T00:45:25;2.25;;;0.68;;
36555;SDS011;40859;50.560;7.268;2023-04-03T00:47:59;1.17;;;0.73;;
36555;SDS011;40859;50.560;7.268;2023-04-03T00:50:28;1.48;;;0.70;;
36555;SDS011;40859;50.560;7.268;2023-04-03T00:52:55;2.35;;;1.00;;
36555;SDS011;40859;50.560;7.268;2023-04-03T00:55:22;0.70;;;0.50;;
36555;SDS011;40859;50.560;7.268;2023-04-03T00:57:48;2.67;;;0.82;;
36555;SDS011;40859;50.560;7.268;2023-04-03T01:00:16;0.90;;;0.60;;
36555;SDS011;40859;50.560;7.268;2023-04-03T01:02:45;1.87;;;1.02;;
36555;SDS011;40859;50.560;7.268;2023-04-03T01:05:11;2.17;;;0.77;;
36555;SDS011;40859;50.560;7.268;2023-04-03T01:07:38;1.62;;;0.80;;
36555;SDS011;40859;50.560;7.268;2023-04-03T01:10:07;1.15;;;0.62;;
36555;SDS011;40859;50.560;7.268;2023-04-03T01:12:39;1.62;;;0.77;;
36555;SDS011;40859;50.560;7.268;2023-04-03T01:15:10;1.15;;;0.77;;
36555;SDS011;40859;50.560;7.268;2023-04-03T01:17:46;1.37;;;0.60;;
36555;SDS011;40859;50.560;7.268;2023-04-03T01:21:27;1.17;;;0.60;;
36555;SDS011;40859;50.560;7.268;2023-04-03T01:24:27;1.65;;;0.60;;
36555;SDS011;40859;50.560;7.268;2023-04-03T01:26:58;2.30;;;0.90;;
36555;SDS011;40859;50.560;7.268;2023-04-03T01:29:26;1.77;;;0.90;;
36555;SDS011;40859;50.560;7.268;2023-04-03T01:31:56;0.93;;;0.70;;
36555;SDS011;40859;50.560;7.268;2023-04-03T01:34:23;1.90;;;0.82;;
36555;SDS011;40859;50.560;7.268;2023-04-03T01:36:50;1.25;;;0.80;;
36555;SDS011;40859;50.560;7.268;2023-04-03T01:39:16;0.80;;;0.80;;
36555;SDS011;40859;50.560;7.268;2023-04-03T01:41:42;1.17;;;0.68;;
36555;SDS011;40859;50.560;7.268;2023-04-03T01:44:08;3.33;;;0.75;;
36555;SDS011;40859;50.560;7.268;2023-04-03T01:46:34;1.27;;;1.00;;
36555;SDS011;40859;50.560;7.268;2023-04-03T01:49:00;0.65;;;0.65;;
36555;SDS011;40859;50.560;7.268;2023-04-03T01:51:26;1.62;;;0.68;;
36555;SDS011;40859;50.560;7.268;2023-04-03T20:17:36;51.60;;;14.18;;
36555;SDS011;40859;50.560;7.268;2023-04-03T20:20:02;55.92;;;13.85;;
36555;SDS011;40859;50.560;7.268;2023-04-03T20:22:29;40.92;;;12.35;;
36555;SDS011;40859;50.560;7.268;2023-04-03T20:24:56;57.33;;;13.32;;
36555;SDS011;40859;50.560;7.268;2023-04-03T20:27:29;38.58;;;11.52;;
36555;SDS011;40859;50.560;7.268;2023-04-03T20:29:56;33.28;;;9.75;;
36555;SDS011;40859;50.560;7.268;2023-04-03T20:32:21;42.70;;;11.35;;
36555;SDS011;40859;50.560;7.268;2023-04-03T20:34:48;37.50;;;11.15;;
36555;SDS011;40859;50.560;7.268;2023-04-03T20:37:14;36.05;;;9.88;;
36555;SDS011;40859;50.560;7.268;2023-04-03T20:39:45;42.58;;;10.50;;
36555;SDS011;40859;50.560;7.268;2023-04-03T20:42:12;30.17;;;10.02;;
36555;SDS011;40859;50.560;7.268;2023-04-03T20:44:38;41.92;;;9.80;;
36555;SDS011;40859;50.560;7.268;2023-04-03T20:47:04;34.50;;;9.10;;
36555;SDS011;40859;50.560;7.268;2023-04-03T20:49:33;33.80;;;10.05;;
36555;SDS011;40859;50.560;7.268;2023-04-03T20:52:00;29.70;;;8.35;;
36555;SDS011;40859;50.560;7.268;2023-04-03T20:54:26;44.47;;;9.65;;
36555;SDS011;40859;50.560;7.268;2023-04-03T20:56:52;27.50;;;7.93;;
36555;SDS011;40859;50.560;7.268;2023-04-03T20:59:18;35.72;;;9.30;;
36555;SDS011;40859;50.560;7.268;2023-04-03T21:01:44;40.08;;;9.27;;
36555;SDS011;40859;50.560;7.268;2023-04-03T21:04:21;29.50;;;8.05;;
36555;SDS011;40859;50.560;7.268;2023-04-03T21:22:10;25.10;;;6.82;;
36555;SDS011;40859;50.560;7.268;2023-04-03T21:24:36;29.87;;;7.03;;
36555;SDS011;40859;50.560;7.268;2023-04-03T21:27:03;25.45;;;6.00;;
36555;SDS011;40859;50.560;7.268;2023-04-03T21:29:29;25.73;;;6.72;;
36555;SDS011;40859;50.560;7.268;2023-04-03T21:31:56;25.35;;;6.97;;
36555;SDS011;40859;50.560;7.268;2023-04-03T21:34:23;17.27;;;5.78;;
36555;SDS011;40859;50.560;7.268;2023-04-03T21:36:52;25.35;;;6.10;;
36555;SDS011;40859;50.560;7.268;2023-04-03T21:39:19;26.55;;;6.22;;
36555;SDS011;40859;50.560;7.268;2023-04-03T21:41:47;18.23;;;6.85;;
36555;SDS011;40859;50.560;7.268;2023-04-03T21:44:15;20.35;;;5.32;;
36555;SDS011;40859;50.560;7.268;2023-04-03T21:46:42;16.42;;;4.95;;
36555;SDS011;40859;50.560;7.268;2023-04-03T21:49:08;19.83;;;4.80;;
36555;SDS011;40859;50.560;7.268;2023-04-03T21:51:34;12.93;;;4.07;;
36555;SDS011;40859;50.560;7.268;2023-04-03T21:54:01;25.88;;;5.47;;
36555;SDS011;40859;50.560;7.268;2023-04-03T21:56:26;14.18;;;4.00;;
36555;SDS011;40859;50.560;7.268;2023-04-03T21:58:55;17.40;;;4.45;;
36555;SDS011;40859;50.560;7.268;2023-04-03T22:01:24;17.42;;;4.20;;
36555;SDS011;40859;50.560;7.268;2023-04-03T22:03:50;11.25;;;3.83;;
36555;SDS011;40859;50.560;7.268;2023-04-03T22:06:16;10.98;;;3.85;;
36555;SDS011;40859;50.560;7.268;2023-04-03T22:08:42;18.33;;;4.53;;
36555;SDS011;40859;50.560;7.268;2023-04-03T22:11:09;13.35;;;3.97;;
36555;SDS011;40859;50.560;7.268;2023-04-03T22:13:40;11.55;;;3.53;;
36555;SDS011;40859;50.560;7.268;2023-04-03T22:16:06;14.10;;;4.30;;
36555;SDS011;40859;50.560;7.268;2023-04-03T22:18:33;10.30;;;3.83;;
36555;SDS011;40859;50.560;7.268;2023-04-03T22:21:00;7.78;;;2.95;;
36555;SDS011;40859;50.560;7.268;2023-04-03T22:23:26;9.15;;;3.37;;
36555;SDS011;40859;50.560;7.268;2023-04-03T22:25:56;9.80;;;3.30;;
36555;SDS011;40859;50.560;7.268;2023-04-03T22:28:33;15.05;;;4.87;;
36555;SDS011;40859;50.560;7.268;2023-04-03T22:31:02;11.07;;;3.35;;
36555;SDS011;40859;50.560;7.268;2023-04-03T22:33:31;10.50;;;2.65;;
36555;SDS011;40859;50.560;7.268;2023-04-03T22:35:57;9.82;;;2.85;;
36555;SDS011;40859;50.560;7.268;2023-04-03T22:38:23;8.50;;;3.33;;
36555;SDS011;40859;50.560;7.268;2023-04-03T22:40:59;12.00;;;3.33;;
36555;SDS011;40859;50.560;7.268;2023-04-03T22:43:27;11.43;;;3.10;;
36555;SDS011;40859;50.560;7.268;2023-04-03T22:45:54;6.20;;;2.78;;
36555;SDS011;40859;50.560;7.268;2023-04-03T22:48:21;7.20;;;2.90;;
36555;SDS011;40859;50.560;7.268;2023-04-03T22:50:48;11.30;;;2.95;;
36555;SDS011;40859;50.560;7.268;2023-04-03T22:53:15;18.40;;;3.28;;
36555;SDS011;40859;50.560;7.268;2023-04-03T22:55:42;13.85;;;2.90;;
36555;SDS011;40859;50.560;7.268;2023-04-03T22:58:08;5.22;;;2.05;;
36555;SDS011;40859;50.560;7.268;2023-04-03T23:00:34;9.52;;;2.85;;
36555;SDS011;40859;50.560;7.268;2023-04-03T23:03:00;9.27;;;2.62;;
36555;SDS011;40859;50.560;7.268;2023-04-03T23:05:27;7.70;;;2.62;;
36555;SDS011;40859;50.560;7.268;2023-04-03T23:07:53;6.55;;;2.42;;
36555;SDS011;40859;50.560;7.268;2023-04-03T23:10:19;6.37;;;2.17;;
36555;SDS011;40859;50.560;7.268;2023-04-03T23:12:46;7.53;;;2.75;;
36555;SDS011;40859;50.560;7.268;2023-04-03T23:15:12;12.32;;;2.72;;
36555;SDS011;40859;50.560;7.268;2023-04-03T23:17:43;3.55;;;1.65;;
36555;SDS011;40859;50.560;7.268;2023-04-03T23:20:11;5.80;;;1.75;;
36555;SDS011;40859;50.560;7.268;2023-04-03T23:22:37;9.15;;;2.85;;
36555;SDS011;40859;50.560;7.268;2023-04-03T23:25:03;4.05;;;1.83;;
36555;SDS011;40859;50.560;7.268;2023-04-03T23:27:30;9.70;;;2.40;;
36555;SDS011;40859;50.560;7.268;2023-04-03T23:29:56;6.32;;;2.03;;
36555;SDS011;40859;50.560;7.268;2023-04-03T23:32:21;10.23;;;2.62;;
36555;SDS011;40859;50.560;7.268;2023-04-03T23:34:47;5.37;;;2.12;;
36555;SDS011;40859;50.560;7.268;2023-04-03T23:37:13;6.00;;;2.15;;
36555;SDS011;40859;50.560;7.268;2023-04-03T23:39:39;9.15;;;2.28;;
36555;SDS011;40859;50.560;7.268;2023-04-03T23:42:05;4.25;;;1.70;;
36555;SDS011;40859;50.560;7.268;2023-04-03T23:44:34;5.30;;;2.10;;
36555;SDS011;40859;50.560;7.268;2023-04-03T23:47:00;3.55;;;1.98;;
36555;SDS011;40859;50.560;7.268;2023-04-03T23:49:26;4.28;;;2.08;;
36555;SDS011;40859;50.560;7.268;2023-04-03T23:51:52;5.15;;;2.22;;
36555;SDS011;40859;50.560;7.268;2023-04-03T23:54:20;3.37;;;1.65;;
36555;SDS011;40859;50.560;7.268;2023-04-03T23:56:46;5.22;;;1.62;;
36555;SDS011;40859;50.560;7.268;2023-04-03T23:59:15;6.30;;;2.00;;
